Create Custom Reports and Graphics: Custom Report

Bell Hill West (BHR)

Current Conditions

12/12/19 10:00 AM (-08:00)
Updated Every 15 Minutes
Temp 54.4 °F   6.0
RH 96 %   4
Dew Pt 53.3 °F   4.9
Wet Bulb 54.9 °F   5.7
Wind Dir WSW | 250 °
Wind Spd 1.8 mph   1.7
Wind Gust 5.9 mph   3.9
Solar Rad 189 W/m2   135
Daily Min Temp 48.9 °F   2.8
Daily Max Temp 54.7 °F   6.2
Latest Rain 0.00 In
Daily Rain 0.01 In

Bell Hill West

Last 24 Hours

Hourly Data | America/Los_Angeles
as of 12/12/19 10:05 AM PST
Date & Time Temp (°F) RH (%) Dew Pt (°F) Wet Bulb (°F) Leaf Wet (mins) Wind Dir (°) Wind Spd (mph) Wind Gust (mph) Solar Rad (W/m2) Latest Rain (In) Daily Rain (In) Daily Min Temp (°F) Daily Max Temp (°F)
12/12/19 - 1000 54.0 99 52.0 55.0 0.0 WSW | 250 0.4 5.9 218 0.00 0.01 48.9 54.7
12/12/19 - 0900 51.3 100 53.7 52.3 0.0 N | 0 0.0 0.0 122 0.00 0.01 48.9 53.7
12/12/19 - 0800 49.9 100 49.4 50.8 0.0 N | 0 0.0 0.0 13 0.00 0.01 48.9 51.7
12/12/19 - 0700 51.5 100 51.0 52.4 0.0 N | 0 0.0 0.0 0 0.00 0.01 51.0 51.7
12/12/19 - 0600 51.3 100 51.4 52.3 0.0 N | 0 0.0 0.0 0 0.00 0.01 51.1 51.5
12/12/19 - 0500 51.2 100 51.2 52.1 0.0 N | 0 0.0 0.0 0 0.00 0.01 51.1 51.5
12/12/19 - 0400 51.4 100 51.2 52.3 0.0 N | 0 0.0 0.0 0 0.01 0.01 51.1 51.5
12/12/19 - 0300 51.3 100 51.4 52.3 0.0 N | 0 0.0 0.0 0 0.00 0.00 51.1 51.4
12/12/19 - 0200 51.3 100 51.3 52.2 0.0 N | 0 0.0 0.0 0 0.00 0.00 51.1 51.4
12/12/19 - 0100 51.2 100 51.4 52.2 0.0 NNW | 341 0.1 3.6 0 0.00 0.00 51.1 51.4
12/12/19 - 0000 51.0 100 51.2 52.0 0.0 N | 352 0.4 4.8 0 0.00 0.27 46.0 51.2
12/11/19 - 2300 50.9 100 50.9 51.9 0.0 NNW | 339 0.2 4.3 0 0.01 0.27 46.0 51.0
12/11/19 - 2200 50.8 100 50.9 51.7 0.0 N | 0 0.0 0.0 0 0.01 0.26 46.0 50.9
12/11/19 - 2100 50.6 100 50.7 51.5 0.0 N | 0 0.0 0.0 0 0.03 0.25 46.0 50.7
12/11/19 - 2000 50.4 100 50.6 51.3 0.0 N | 358 2.6 9.1 0 0.00 0.22 46.0 50.7
12/11/19 - 1900 50.3 100 50.3 51.2 0.0 NNE | 14 0.5 4.9 0 0.07 0.22 46.0 50.7
12/11/19 - 1800 50.3 100 50.4 51.1 0.0 N | 0 0.0 0.0 0 0.03 0.15 46.0 50.7
12/11/19 - 1700 50.1 100 50.1 51.0 0.0 N | 0 0.0 0.0 4 0.01 0.12 46.0 50.7
12/11/19 - 1600 50.4 100 50.2 51.2 0.0 N | 0 0.0 0.0 23 0.01 0.11 46.0 50.7
12/11/19 - 1500 50.1 100 50.3 51.0 0.0 N | 0 0.0 0.0 56 0.01 0.10 46.0 50.4
12/11/19 - 1400 49.8 100 50.1 50.6 0.0 N | 356 0.3 3.6 92 0.00 0.09 46.0 50.2
12/11/19 - 1300 49.6 100 49.5 50.5 0.0 NNE | 17 1.9 5.6 69 0.04 0.09 46.0 49.9
12/11/19 - 1200 49.2 100 49.5 50.0 0.0 E | 79 0.3 4.4 96 0.01 0.05 46.0 49.7
12/11/19 - 1100 48.5 100 48.7 49.3 0.0 N | 4 0.3 3.9 60 0.01 0.04 46.0 48.8
12/11/19 - 1000 48.1 100 48.5 48.8 0.0 ESE | 107 0.5 7.1 53 0.00 0.03 46.0 48.6
Max 54.0 100 53.7 55.0 0.0 - 2.6 9.1 218 0.07 0.27 51.1 54.7
Avg 50.6 100 50.6 51.5 0.0 - 0.3 2.3 32 0.01 - - -
Min 48.1 99 48.5 48.8 0.0 - 0.0 0.0 0 0.00 0.00 46.0 48.6
Total - - - - - - - - - 0.25 - - -

Bell Hill West - Daily Summary

Last 30 Days

Daily Data | America/Los_Angeles
as of 12/12/19 10:05 AM PST
Date Daily Max Temp (°F) Max Temp Time Daily Min Temp (°F) Min Temp Time Daily Rain (In) Seasonal Rainfall (In) Wind Spd (mph) Daily Max Wind (mph) Max Wind Time Max Wind Dir (°) Dew Pt (°F) Max RH (%) Min RH (%) Daily Solar Rad (Cal/cm2) Daily ETo (in) GDDs (DL) Chill Hrs <=45 (hrs) Hrs <= 32F (hrs) Hrs <= 28F (hrs) Hrs 70-85F (hrs) Hrs > 95F (hrs) Powdery Mildew Stress (pts) Leaf Wet (hrs) Bat Volt Min Day (V)
12/11/19 51.2 0001 46.0 0001 0.27 6.25 0.4 9.1 1939 NNW | 344 48.8 100 100 42 0.01 0.21 0.0 0.0 0.0 0.00 0.00 0 0.2 12.11
12/10/19 52.6 1520 38.6 0006 0.26 5.98 0.6 9.5 1631 ENE | 65 43.8 100 74 156 0.03 0.27 10.6 0.0 0.0 0.00 0.00 0 0.8 12.21
12/9/19 58.3 1501 33.2 0730 0.01 5.72 0.4 6.8 1515 W | 259 40.6 100 59 217 0.04 0.95 16.3 0.0 0.0 0.00 0.00 0 0.6 12.17
12/8/19 58.7 1436 38.1 2354 0.00 5.71 0.8 8.6 1652 ESE | 106 45.8 100 62 184 0.04 1.62 5.2 0.0 0.0 0.00 0.00 0 0.8 12.03
12/7/19 55.6 1158 50.3 2353 1.01 5.71 10.6 33.4 0900 S | 190 49.6 94 74 86 0.03 3.24 0.0 0.0 0.0 0.00 0.00 0 0.5 12.04
12/6/19 55.2 1332 50.9 0001 1.29 4.70 3.7 22.9 2342 S | 182 48.9 100 70 45 0.02 2.73 0.0 0.0 0.0 0.00 0.00 0 0.3 12.04
12/5/19 53.9 1144 41.3 0008 0.01 3.41 2.2 11.0 0933 E | 88 47.6 100 81 67 0.02 1.16 2.5 0.0 0.0 0.00 0.00 0 0.3 12.03
12/4/19 53.8 1455 41.3 2359 0.04 3.40 0.5 8.8 0928 ENE | 68 46.7 100 79 64 0.02 0.74 4.6 0.0 0.0 0.00 0.00 0 0.2 12.03
12/3/19 61.6 1337 44.9 2242 0.01 3.36 0.4 5.6 1412 NNE | 27 49.8 100 67 162 0.04 2.03 0.1 0.0 0.0 0.00 0.00 0 0.7 12.03
12/2/19 50.1 2219 44.4 0413 0.26 3.35 3.0 16.2 0457 SSE | 161 46.4 100 89 87 0.02 0.00 7.1 0.0 0.0 0.00 0.00 0 0.3 12.02
12/1/19 46.5 1750 40.6 0012 1.42 3.09 3.0 12.6 0101 ENE | 57 43.9 100 100 40 0.01 0.00 15.2 0.0 0.0 0.00 0.00 0 0.2 11.97
11/30/19 40.9 2307 26.4 0042 0.50 1.67 4.1 14.3 1248 E | 83 35.1 100 86 46 0.01 0.00 24.0 5.2 3.9 0.00 0.00 0 0.2 12.02
11/29/19 48.4 1455 23.2 0634 0.00 1.17 2.6 12.6 1205 WSW | 249 28.1 100 40 279 0.05 0.00 19.3 14.4 9.8 0.00 0.00 0 0.6 12.15
11/28/19 45.5 1426 24.7 0531 0.01 1.17 1.4 9.8 1327 NE | 53 29.7 100 55 169 0.03 0.00 23.9 13.5 7.2 0.00 0.00 0 0.8 12.17
11/27/19 44.6 1211 28.3 2230 0.16 1.16 3.4 20.9 0019 WSW | 248 33.9 100 61 156 0.03 0.00 24.0 4.1 0.0 0.00 0.00 0 0.8 12.00
11/26/19 43.4 1120 26.2 0233 0.87 1.00 4.9 24.4 1610 ESE | 122 31.4 100 52 61 0.02 0.00 24.0 8.0 4.1 0.00 0.00 0 0.4 12.06
11/25/19 59.2 1301 29.6 2352 0.00 0.13 5.1 18.0 1409 WNW | 283 25.4 94 17 262 0.09 2.07 11.7 2.4 0.0 0.00 0.00 0 0.5 12.10
11/24/19 69.4 1453 29.2 0656 0.00 0.13 2.4 9.1 1528 WSW | 250 32.6 99 23 246 0.06 4.02 13.7 4.9 0.0 0.00 0.00 0 0.6 12.11
11/23/19 67.5 1454 30.7 0655 0.00 0.13 2.4 7.6 1131 NE | 46 33.9 100 27 261 0.06 3.67 14.4 3.2 0.0 0.00 0.00 0 0.5 12.12
11/22/19 63.2 1506 30.2 0712 0.00 0.13 1.8 7.8 1108 N | 350 34.3 94 41 251 0.06 2.68 14.5 4.1 0.0 0.00 0.00 0 0.5 12.12
11/21/19 65.0 1425 33.5 0650 0.00 0.13 2.6 10.0 1144 NNE | 18 28.6 84 23 264 0.06 3.85 14.3 0.0 0.0 0.00 0.00 0 0.5 12.15
11/20/19 63.5 1424 34.4 0638 0.00 0.13 4.8 23.2 1107 NNE | 12 29.7 94 22 270 0.09 3.81 14.0 0.0 0.0 0.00 0.00 0 0.5 12.17
11/19/19 63.2 1250 38.8 2354 0.00 0.13 4.3 14.6 1208 WNW | 299 43.4 91 42 265 0.07 5.15 2.0 0.0 0.0 0.00 0.00 0 0.5 12.13
11/18/19 79.4 1442 37.7 0655 0.00 0.13 2.0 11.1 2349 SW | 235 41.0 88 26 270 0.07 10.58 8.3 0.0 0.0 5.76 0.00 0 0.6 12.13
11/17/19 79.4 1607 37.3 0715 0.00 0.13 2.0 6.4 1144 N | 7 36.8 91 17 281 0.07 7.72 9.2 0.0 0.0 4.98 0.00 0 0.5 12.14
11/16/19 71.9 1606 36.2 0618 0.00 0.13 1.9 6.8 1324 NNE | 23 42.6 100 37 258 0.06 5.46 10.1 0.0 0.0 2.30 0.00 0 0.6 12.15
11/15/19 65.8 1443 41.7 2354 0.01 0.13 1.5 10.6 1501 WSW | 246 47.1 100 58 252 0.06 4.16 6.3 0.0 0.0 0.00 0.00 0 0.7 12.18
11/14/19 62.4 1141 41.5 2320 0.00 0.12 3.5 17.8 1221 SSW | 202 43.2 96 53 280 0.07 3.23 3.4 0.0 0.0 0.00 0.00 0 0.7 12.14
11/13/19 71.9 1429 40.1 0654 0.00 0.12 1.8 7.4 1622 SSW | 212 40.9 91 33 212 0.05 7.12 8.3 0.0 0.0 2.67 0.00 0 0.6 12.13
11/12/19 74.6 1528 40.2 0627 0.00 0.12 1.7 5.6 1328 N | 6 40.5 88 31 227 0.05 6.80 8.5 0.0 0.0 4.31 0.00 0 0.5 12.13
Max 79.4 - 50.9 - 1.42 - 10.6 33.4 - - 49.8 100 100 281 0.09 10.58 24.0 14.4 9.8 5.76 0.00 0 0.8 12.21
Avg - - - - - - 2.7 - - - 39.7 - - - - 2.78 10.5 2.0 0.8 0.67 0.00 - - -
Min 40.9 - 23.2 - 0.00 - 0.4 5.6 - - 25.4 84 17 40 0.01 0.00 0.0 0.0 0.0 0.00 0.00 0 0.2 11.97
Total - - - - - - - - - - - - - - - 83.29 315.4 59.7 25.0 20.02 0.00 - - -

Bell Hill West Climate Summary

Current Yeaer

Current Year | Showing 1/1/19 - 12/11/19
as of 12/12/19 10:05 AM PST
Temperature (°F) Precip (in) Days
Month Days Avg Max Avg Min Max Max Min Min Total Daily Min Temp < 28 Daily Min Temp < 32 Daily Max Temp > 90 Daily Max Temp > 100 Daily Rain > 0.01 Daily Rain > 0.1
Jan 2019 31 56.8 36.2 71.5 24.5 10.09 3 8 0 0 12 11
Feb 2019 28 49.5 33.4 56.5 21.5 17.41 10 14 0 0 17 14
Mar 2019 31 58.8 36.4 74.6 26.8 4.4 1 6 0 0 12 10
Apr 2019 30 70.5 44 88.6 33.2 0.38 0 0 0 0 4 1
May 2019 31 72.1 44.7 85.2 36.4 2.59 0 0 0 0 6 5
Jun 2019 30 87.1 51.7 98.2 41.6 0 0 0 10 0 0 0
Jul 2019 31 89.5 54 100 47.1 0 0 0 14 0 0 0
Aug 2019 31 91.4 55.5 102 49.6 0 0 0 21 1 0 0
Sep 2019 30 82.5 47.9 97.2 34.3 0.1 0 0 9 0 2 0
Oct 2019 31 76.3 36.4 88.5 27.4 0.01 3 5 0 0 0 0
Nov 2019 30 68.5 34 81.6 23.2 1.55 4 11 0 0 3 3
Dec 2019 11 54.3 42.7 61.6 33.2 4.58 0 0 0 0 7 6
Total 345 - - - - 41.11 21 44 54 1 63 50
Average 28.8 71.4 43.1 - - 3.43 1.8 3.7 4.5 0.1 5.2 4.2
Maximum 31 91.4 55.5 102 - 17.41 10 14 21 1 17 14
Minimum 11 49.5 33.4 - 21.5 0 0 0 0 0 0 0

Bell Hill West Climate Summary

Last Year

Last Year | Showing 1/1/18 - 12/31/18
as of 12/12/19 10:05 AM PST
Temperature (°F) Precip (in) Days
Month Days Avg Max Avg Min Max Max Min Min Total Daily Min Temp < 28 Daily Min Temp < 32 Daily Max Temp > 90 Daily Max Temp > 100 Daily Rain > 0.01 Daily Rain > 0.1
Jan 2018 31 55.8 33.2 68.2 -40 6.62 3 10 0 0 15 9
Feb 2018 28 62 28.9 78.8 19.4 0.75 15 17 0 0 3 2
Mar 2018 31 59.9 34.1 82.6 23.8 6.24 5 11 0 0 16 13
Apr 2018 30 67.3 37.4 82.3 -40 3.01 1 2 0 0 7 7
May 2018 31 75.9 42.6 92.8 -40 0.12 1 1 1 0 2 0
Jun 2018 30 85.9 49.2 99.3 38.4 0 0 0 8 0 0 0
Jul 2018 31 93.9 56.5 103 47.8 0 0 0 24 4 0 0
Aug 2018 31 90.1 49.1 98 -40 0 1 1 16 0 0 0
Sep 2018 29 86.4 46.3 97.2 40.1 0.08 0 0 14 0 1 0
Oct 2018 31 77 42.1 86.4 32.4 1.04 0 0 0 0 4 2
Nov 2018 30 66 33.9 81.6 23.6 4.82 9 14 0 0 7 7
Dec 2018 31 54.8 33.2 62.3 25.4 3.2 2 15 0 0 11 5
Total 364 - - - - 25.88 37 71 63 4 66 45
Average 30.3 72.9 40.5 - - 2.16 3.1 5.9 5.2 0.3 5.5 3.8
Maximum 31 93.9 56.5 103 - 6.62 15 17 24 4 16 13
Minimum 28 54.8 28.9 - -40 0 0 0 0 0 0 0
Calm: 77.3%
Calm: 7.9%